createdAt,value
2019-02-28T00:00:07.388Z,978.68
2019-02-28T00:01:05.139Z,978.45
2019-02-28T00:02:05.038Z,978.71
2019-02-28T00:03:05.266Z,978.65
2019-02-28T00:04:04.475Z,978.54
2019-02-28T00:05:07.103Z,978.62
2019-02-28T00:06:04.886Z,978.54
2019-02-28T00:07:04.828Z,978.57
2019-02-28T00:08:04.913Z,978.57
2019-02-28T00:09:05.413Z,978.41
2019-02-28T00:10:05.320Z,978.44
2019-02-28T00:11:06.275Z,978.54
2019-02-28T00:12:05.026Z,978.44
2019-02-28T00:13:05.441Z,978.48
2019-02-28T00:14:04.569Z,978.41
2019-02-28T00:15:04.764Z,978.46
2019-02-28T00:16:05.181Z,978.46
2019-02-28T00:17:09.860Z,978.44
2019-02-28T00:18:04.702Z,978.28
2019-02-28T00:19:04.763Z,978.33
2019-02-28T00:20:05.245Z,978.31
2019-02-28T00:21:07.419Z,978.44
2019-02-28T00:22:05.082Z,978.37
2019-02-28T00:23:05.443Z,978.40
2019-02-28T00:24:04.492Z,978.34
2019-02-28T00:25:05.415Z,978.31
2019-02-28T00:26:05.147Z,978.17
2019-02-28T00:27:04.876Z,978.15
2019-02-28T00:28:05.504Z,978.34
2019-02-28T00:29:09.985Z,978.20
2019-02-28T00:30:06.891Z,978.29
2019-02-28T00:31:04.894Z,978.32
2019-02-28T00:32:05.122Z,978.12
2019-02-28T00:33:04.474Z,978.29
2019-02-28T00:34:05.895Z,978.18
2019-02-28T00:35:05.369Z,978.26
2019-02-28T00:36:04.554Z,978.07
2019-02-28T00:37:04.632Z,978.15
2019-02-28T00:38:04.855Z,978.13
2019-02-28T00:39:05.281Z,978.10
2019-02-28T00:40:07.567Z,978.07
2019-02-28T00:41:05.390Z,978.10
2019-02-28T00:42:05.495Z,977.93
2019-02-28T00:43:04.607Z,978.02
2019-02-28T00:44:04.862Z,977.96
2019-02-28T00:45:04.993Z,978.02
2019-02-28T00:46:07.163Z,977.93
2019-02-28T00:47:04.712Z,977.94
2019-02-28T00:48:05.235Z,977.94
2019-02-28T00:49:04.870Z,977.80
2019-02-28T00:50:04.534Z,977.83
2019-02-28T00:51:05.079Z,977.88
2019-02-28T00:52:04.562Z,977.85
2019-02-28T00:53:07.602Z,977.83
2019-02-28T00:54:08.497Z,977.74
2019-02-28T00:55:05.454Z,977.75
2019-02-28T00:56:04.477Z,977.86
2019-02-28T00:57:04.516Z,977.75
2019-02-28T00:58:05.130Z,977.72
2019-02-28T00:59:05.210Z,977.69
2019-02-28T01:00:06.580Z,977.69
2019-02-28T01:01:05.341Z,977.62
2019-02-28T01:02:05.283Z,977.62
2019-02-28T01:03:04.857Z,977.67
2019-02-28T01:04:04.879Z,977.45
2019-02-28T01:05:06.412Z,977.54
2019-02-28T01:06:10.643Z,977.51
2019-02-28T01:07:05.426Z,977.51
2019-02-28T01:08:04.698Z,977.45
2019-02-28T01:09:04.856Z,977.54
2019-02-28T01:10:05.510Z,977.40
2019-02-28T01:11:05.510Z,977.45
2019-02-28T01:12:04.510Z,977.34
2019-02-28T01:13:04.597Z,977.45
2019-02-28T01:14:04.809Z,977.54
2019-02-28T01:15:09.985Z,977.45
2019-02-28T01:16:04.807Z,977.48
2019-02-28T01:17:04.814Z,977.40
2019-02-28T01:18:04.853Z,977.42
2019-02-28T01:19:10.065Z,977.40
2019-02-28T01:20:04.979Z,977.40
2019-02-28T01:21:05.037Z,977.40
2019-02-28T01:22:05.238Z,977.23
2019-02-28T01:23:04.718Z,977.26
2019-02-28T01:24:04.909Z,977.34
2019-02-28T01:25:07.406Z,977.31
2019-02-28T01:26:04.586Z,977.26
2019-02-28T01:27:04.596Z,977.23
2019-02-28T01:28:05.010Z,977.20
2019-02-28T01:29:05.206Z,977.14
2019-02-28T01:30:07.557Z,977.12
2019-02-28T01:31:05.141Z,977.26
2019-02-28T01:32:04.820Z,977.26
2019-02-28T01:33:05.086Z,977.31
2019-02-28T01:34:05.276Z,977.09
2019-02-28T01:35:07.252Z,977.12
2019-02-28T01:36:04.954Z,976.95
2019-02-28T01:37:05.107Z,977.12
2019-02-28T01:38:05.428Z,977.09
2019-02-28T01:39:05.094Z,977.17
2019-02-28T01:40:05.685Z,977.17
2019-02-28T01:41:08.263Z,977.09
2019-02-28T01:42:05.549Z,977.03
2019-02-28T01:43:05.137Z,976.98
2019-02-28T01:44:05.085Z,977.17
2019-02-28T01:45:10.975Z,977.15
2019-02-28T01:46:04.743Z,976.92
2019-02-28T01:47:05.179Z,977.06
2019-02-28T01:48:09.696Z,976.98
2019-02-28T01:49:04.990Z,976.81
2019-02-28T01:50:05.192Z,976.84
2019-02-28T01:51:05.242Z,976.95
2019-02-28T01:52:10.775Z,976.87
2019-02-28T01:53:05.419Z,976.87
2019-02-28T01:54:05.029Z,976.89
2019-02-28T01:55:05.342Z,976.84
2019-02-28T01:56:05.007Z,976.98
2019-02-28T01:57:05.505Z,976.89
2019-02-28T01:58:04.594Z,976.84
2019-02-28T01:59:04.698Z,976.87
2019-02-28T02:00:05.072Z,976.87
2019-02-28T02:01:05.390Z,976.84
2019-02-28T02:02:07.084Z,976.81
2019-02-28T02:03:04.903Z,976.71
2019-02-28T02:04:04.951Z,976.68
2019-02-28T02:05:05.046Z,976.75
2019-02-28T02:06:05.485Z,976.75
2019-02-28T02:07:05.498Z,976.65
2019-02-28T02:08:07.708Z,976.60
2019-02-28T02:09:08.033Z,976.71
2019-02-28T02:10:04.499Z,976.74
2019-02-28T02:11:04.516Z,976.60
2019-02-28T02:12:05.301Z,976.74
2019-02-28T02:13:05.360Z,976.62
2019-02-28T02:14:10.916Z,976.54
2019-02-28T02:15:05.481Z,976.54
2019-02-28T02:16:04.777Z,976.54
2019-02-28T02:17:05.023Z,976.62
2019-02-28T02:18:10.052Z,976.48
2019-02-28T02:19:04.693Z,976.60
2019-02-28T02:20:05.266Z,976.49
2019-02-28T02:21:05.439Z,976.60
2019-02-28T02:22:10.144Z,976.54
2019-02-28T02:23:04.796Z,976.43
2019-02-28T02:24:05.214Z,976.46
2019-02-28T02:25:04.727Z,976.43
2019-02-28T02:26:04.892Z,976.29
2019-02-28T02:27:05.486Z,976.31
2019-02-28T02:28:04.604Z,976.29
2019-02-28T02:29:10.154Z,976.37
2019-02-28T02:30:15.732Z,976.26
2019-02-28T02:31:04.639Z,976.34
2019-02-28T02:32:04.816Z,976.42
2019-02-28T02:33:04.990Z,976.51
2019-02-28T02:34:05.147Z,976.28
2019-02-28T02:35:08.583Z,976.28
2019-02-28T02:36:05.261Z,976.28
2019-02-28T02:37:04.819Z,976.14
2019-02-28T02:38:05.272Z,976.17
2019-02-28T02:39:05.124Z,976.17
2019-02-28T02:40:05.311Z,976.05
2019-02-28T02:41:05.394Z,976.03
2019-02-28T02:42:11.647Z,976.08
2019-02-28T02:43:04.497Z,976.08
2019-02-28T02:44:04.783Z,976.14
2019-02-28T02:45:06.778Z,976.05
2019-02-28T02:46:04.467Z,975.97
2019-02-28T02:47:05.140Z,976.14
2019-02-28T02:48:07.017Z,976.08
2019-02-28T02:49:04.758Z,976.00
2019-02-28T02:50:04.942Z,976.00
2019-02-28T02:51:12.479Z,976.00
2019-02-28T02:52:05.362Z,975.94
2019-02-28T02:53:06.734Z,976.00
2019-02-28T02:54:04.543Z,976.00
2019-02-28T02:55:05.153Z,975.78
2019-02-28T02:56:05.399Z,975.95
2019-02-28T02:57:04.931Z,975.98
2019-02-28T02:58:05.029Z,975.81
2019-02-28T02:59:05.298Z,975.87
2019-02-28T03:00:05.320Z,975.78
2019-02-28T03:01:05.456Z,975.78
2019-02-28T03:02:04.977Z,975.81
2019-02-28T03:03:07.751Z,975.93
2019-02-28T03:04:04.654Z,976.01
2019-02-28T03:05:05.083Z,975.90
2019-02-28T03:06:14.217Z,975.76
2019-02-28T03:07:04.899Z,975.93
2019-02-28T03:08:04.663Z,976.04
2019-02-28T03:09:04.842Z,975.87
2019-02-28T03:10:05.157Z,976.04
2019-02-28T03:11:05.327Z,975.93
2019-02-28T03:12:05.424Z,976.10
2019-02-28T03:13:06.629Z,976.02
2019-02-28T03:14:05.440Z,975.91
2019-02-28T03:15:04.905Z,975.83
2019-02-28T03:16:04.538Z,975.97
2019-02-28T03:17:12.010Z,975.88
2019-02-28T03:18:04.918Z,975.97
2019-02-28T03:19:05.327Z,975.83
2019-02-28T03:20:08.820Z,975.72
2019-02-28T03:21:04.505Z,975.81
2019-02-28T03:22:04.835Z,975.78
2019-02-28T03:23:05.113Z,975.67
2019-02-28T03:24:05.331Z,975.78
2019-02-28T03:25:05.371Z,975.72
2019-02-28T03:26:07.398Z,975.81
2019-02-28T03:27:05.172Z,975.61
2019-02-28T03:28:04.655Z,975.84
2019-02-28T03:29:09.793Z,975.81
2019-02-28T03:30:05.128Z,975.58
2019-02-28T03:31:15.213Z,975.58
2019-02-28T03:32:05.110Z,975.61
2019-02-28T03:33:05.351Z,975.69
2019-02-28T03:34:14.205Z,975.66
2019-02-28T03:35:04.901Z,975.66
2019-02-28T03:36:04.457Z,975.69
2019-02-28T03:37:04.634Z,975.74
2019-02-28T03:38:12.575Z,975.66
2019-02-28T03:39:05.321Z,975.72
2019-02-28T03:40:05.815Z,975.63
2019-02-28T03:41:04.612Z,975.77
2019-02-28T03:42:05.095Z,975.63
2019-02-28T03:43:07.222Z,975.77
2019-02-28T03:44:04.997Z,975.72
2019-02-28T03:45:05.281Z,975.58
2019-02-28T03:46:11.493Z,975.74
2019-02-28T03:47:05.167Z,975.83
2019-02-28T03:48:05.385Z,975.61
2019-02-28T03:49:12.602Z,975.66
2019-02-28T03:50:05.237Z,975.67
2019-02-28T03:51:05.346Z,975.75
2019-02-28T03:52:07.103Z,975.58
2019-02-28T03:53:04.894Z,975.72
2019-02-28T03:54:05.001Z,975.58
2019-02-28T03:55:05.111Z,975.56
2019-02-28T03:56:05.305Z,975.61
2019-02-28T03:57:04.606Z,975.50
2019-02-28T03:58:06.104Z,975.59
2019-02-28T03:59:04.806Z,975.56
2019-02-28T04:00:05.282Z,975.73
2019-02-28T04:01:10.325Z,975.54
2019-02-28T04:02:05.298Z,975.57
2019-02-28T04:03:04.711Z,975.51
2019-02-28T04:04:12.433Z,975.70
2019-02-28T04:05:10.189Z,975.59
2019-02-28T04:06:05.272Z,975.71
2019-02-28T04:07:05.130Z,975.48
2019-02-28T04:08:04.575Z,975.62
2019-02-28T04:09:09.117Z,975.54
2019-02-28T04:10:04.829Z,975.62
2019-02-28T04:11:05.082Z,975.51
2019-02-28T04:12:09.196Z,975.57
2019-02-28T04:13:04.928Z,975.51
2019-02-28T04:14:05.052Z,975.54
2019-02-28T04:15:10.272Z,975.54
2019-02-28T04:16:10.111Z,975.60
2019-02-28T04:17:04.832Z,975.33
2019-02-28T04:18:08.735Z,975.49
2019-02-28T04:19:05.480Z,975.43
2019-02-28T04:20:04.892Z,975.40
2019-02-28T04:21:09.826Z,975.52
2019-02-28T04:22:04.788Z,975.43
2019-02-28T04:23:04.831Z,975.40
2019-02-28T04:24:14.065Z,975.43
2019-02-28T04:25:04.833Z,975.46
2019-02-28T04:26:04.840Z,975.35
2019-02-28T04:27:08.052Z,975.43
2019-02-28T04:28:04.826Z,975.43
2019-02-28T04:29:04.927Z,975.40
2019-02-28T04:30:08.591Z,975.35
2019-02-28T04:31:05.306Z,975.35
2019-02-28T04:32:05.401Z,975.46
2019-02-28T04:33:05.170Z,975.38
2019-02-28T04:34:05.474Z,975.30
2019-02-28T04:35:05.095Z,975.43
2019-02-28T04:36:05.298Z,975.35
2019-02-28T04:37:09.847Z,975.30
2019-02-28T04:38:04.585Z,975.19
2019-02-28T04:39:09.647Z,975.25
2019-02-28T04:40:06.828Z,975.30
2019-02-28T04:41:04.514Z,975.22
2019-02-28T04:42:06.375Z,975.19
2019-02-28T04:43:10.832Z,975.25
2019-02-28T04:44:04.444Z,975.24
2019-02-28T04:45:05.304Z,975.13
2019-02-28T04:46:04.590Z,975.13
2019-02-28T04:47:07.893Z,975.19
2019-02-28T04:48:04.656Z,975.16
2019-02-28T04:49:04.650Z,975.11
2019-02-28T04:50:05.244Z,975.11
2019-02-28T04:51:06.608Z,975.02
2019-02-28T04:52:05.487Z,975.05
2019-02-28T04:53:04.500Z,975.02
2019-02-28T04:54:05.002Z,975.11
2019-02-28T04:55:04.611Z,975.14
2019-02-28T04:56:04.800Z,975.17
2019-02-28T04:57:04.791Z,975.11
2019-02-28T04:58:05.101Z,975.11
2019-02-28T04:59:10.470Z,975.17
2019-02-28T05:00:06.678Z,975.09
2019-02-28T05:01:04.784Z,975.17
2019-02-28T05:02:05.011Z,975.09
2019-02-28T05:03:05.152Z,975.12
2019-02-28T05:04:04.902Z,975.12
2019-02-28T05:05:05.359Z,975.00
2019-02-28T05:06:05.422Z,975.20
2019-02-28T05:07:04.689Z,975.03
2019-02-28T05:08:06.259Z,975.09
2019-02-28T05:09:05.003Z,975.09
2019-02-28T05:10:04.755Z,975.12
2019-02-28T05:11:05.531Z,975.09
2019-02-28T05:12:06.240Z,975.12
2019-02-28T05:13:04.883Z,974.93
2019-02-28T05:14:05.479Z,975.15
2019-02-28T05:15:04.484Z,975.09
2019-02-28T05:16:04.821Z,975.09
2019-02-28T05:17:04.973Z,975.03
2019-02-28T05:18:05.400Z,974.98
2019-02-28T05:19:05.416Z,975.00
2019-02-28T05:20:12.005Z,975.12
2019-02-28T05:21:04.783Z,975.15
2019-02-28T05:22:05.420Z,974.98
2019-02-28T05:23:04.521Z,975.03
2019-02-28T05:24:08.635Z,975.15
2019-02-28T05:25:06.096Z,975.18
2019-02-28T05:26:05.328Z,974.95
2019-02-28T05:27:04.540Z,975.09
2019-02-28T05:28:07.901Z,974.98
2019-02-28T05:29:04.678Z,974.98
2019-02-28T05:30:04.969Z,974.91
2019-02-28T05:31:05.138Z,974.96
2019-02-28T05:32:05.269Z,974.98
2019-02-28T05:33:07.451Z,974.94
2019-02-28T05:34:05.134Z,975.01
2019-02-28T05:35:05.548Z,975.04
2019-02-28T05:36:05.086Z,974.88
2019-02-28T05:37:04.473Z,974.91
2019-02-28T05:38:04.624Z,974.88
2019-02-28T05:39:04.720Z,974.94
2019-02-28T05:40:07.092Z,974.94
2019-02-28T05:41:04.885Z,974.88
2019-02-28T05:42:05.463Z,974.80
2019-02-28T05:43:04.896Z,974.82
2019-02-28T05:44:07.539Z,974.95
2019-02-28T05:45:05.149Z,974.95
2019-02-28T05:46:04.565Z,974.88
2019-02-28T05:47:10.182Z,974.93
2019-02-28T05:48:05.014Z,974.87
2019-02-28T05:49:04.706Z,974.90
2019-02-28T05:50:04.451Z,974.95
2019-02-28T05:51:04.601Z,974.95
2019-02-28T05:52:05.245Z,974.90
2019-02-28T05:53:09.894Z,974.95
2019-02-28T05:54:04.838Z,975.03
2019-02-28T05:55:05.017Z,974.93
2019-02-28T05:56:05.355Z,975.12
2019-02-28T05:57:09.163Z,974.95
2019-02-28T05:58:05.174Z,975.00
2019-02-28T05:59:05.163Z,974.90
2019-02-28T06:00:04.481Z,974.93
2019-02-28T06:01:08.677Z,974.97
2019-02-28T06:02:05.125Z,975.00
2019-02-28T06:03:05.278Z,975.00
2019-02-28T06:04:04.987Z,975.03
2019-02-28T06:05:05.147Z,975.00
2019-02-28T06:06:05.449Z,975.00
2019-02-28T06:07:04.875Z,975.00
2019-02-28T06:08:05.388Z,975.03
2019-02-28T06:09:04.643Z,975.12
2019-02-28T06:10:04.683Z,975.12
2019-02-28T06:11:05.315Z,975.03
2019-02-28T06:12:10.142Z,974.93
2019-02-28T06:13:04.819Z,975.09
2019-02-28T06:14:05.014Z,975.12
2019-02-28T06:15:05.306Z,975.09
2019-02-28T06:16:10.981Z,974.98
2019-02-28T06:17:05.206Z,974.91
2019-02-28T06:18:05.354Z,975.04
2019-02-28T06:19:09.040Z,975.01
2019-02-28T06:20:04.750Z,974.95
2019-02-28T06:21:04.906Z,974.91
2019-02-28T06:22:05.302Z,974.98
2019-02-28T06:23:10.098Z,974.82
2019-02-28T06:24:04.964Z,975.09
2019-02-28T06:25:05.221Z,974.95
2019-02-28T06:26:04.597Z,974.95
2019-02-28T06:27:07.778Z,975.01
2019-02-28T06:28:04.573Z,974.94
2019-02-28T06:29:10.037Z,975.01
2019-02-28T06:30:05.013Z,975.15
2019-02-28T06:31:05.084Z,974.96
2019-02-28T06:32:05.324Z,974.88
2019-02-28T06:33:05.459Z,974.96
2019-02-28T06:34:09.272Z,974.96
2019-02-28T06:35:05.036Z,974.99
2019-02-28T06:36:05.153Z,974.96
2019-02-28T06:37:05.299Z,974.91
2019-02-28T06:38:07.200Z,974.98
2019-02-28T06:39:05.013Z,974.95
2019-02-28T06:40:05.259Z,974.95
2019-02-28T06:41:08.715Z,975.20
2019-02-28T06:42:05.488Z,975.12
2019-02-28T06:43:04.551Z,974.95
2019-02-28T06:44:04.922Z,975.22
2019-02-28T06:45:04.574Z,975.11
2019-02-28T06:46:04.990Z,974.96
2019-02-28T06:47:04.980Z,975.04
2019-02-28T06:48:05.116Z,975.15
2019-02-28T06:49:10.571Z,975.03
2019-02-28T06:50:04.925Z,975.14
2019-02-28T06:51:05.207Z,975.10
2019-02-28T06:52:04.685Z,975.29
2019-02-28T06:53:04.894Z,975.20
2019-02-28T06:54:08.909Z,975.13
2019-02-28T06:55:04.532Z,975.29
2019-02-28T06:56:04.635Z,975.17
2019-02-28T06:57:04.870Z,975.19
2019-02-28T06:58:05.009Z,975.32
2019-02-28T06:59:05.953Z,975.23
2019-02-28T07:00:04.716Z,975.38
2019-02-28T07:01:04.708Z,975.24
2019-02-28T07:02:05.251Z,975.32
2019-02-28T07:03:05.419Z,975.26
2019-02-28T07:04:04.833Z,975.28
2019-02-28T07:05:04.985Z,975.19
2019-02-28T07:06:05.156Z,975.18
2019-02-28T07:07:10.330Z,975.20
2019-02-28T07:08:05.148Z,975.14
2019-02-28T07:09:05.490Z,975.33
2019-02-28T07:10:09.593Z,975.16
2019-02-28T07:11:04.922Z,975.21
2019-02-28T07:12:05.278Z,975.09
2019-02-28T07:13:06.013Z,975.14
2019-02-28T07:14:04.818Z,975.17
2019-02-28T07:15:04.637Z,975.25
2019-02-28T07:16:04.864Z,975.22
2019-02-28T07:17:10.842Z,975.18
2019-02-28T07:18:05.155Z,975.18
2019-02-28T07:19:04.722Z,975.29
2019-02-28T07:20:04.875Z,975.26
2019-02-28T07:21:08.690Z,975.28
2019-02-28T07:22:05.484Z,975.35
2019-02-28T07:23:04.697Z,975.30
2019-02-28T07:24:04.765Z,975.16
2019-02-28T07:25:05.429Z,975.16
2019-02-28T07:26:04.491Z,975.15
2019-02-28T07:27:04.911Z,975.18
2019-02-28T07:28:05.143Z,975.20
2019-02-28T07:29:12.404Z,975.14
2019-02-28T07:30:04.976Z,975.14
2019-02-28T07:31:04.956Z,975.16
2019-02-28T07:32:05.397Z,975.13
2019-02-28T07:33:10.707Z,975.02
2019-02-28T07:34:05.423Z,975.19
2019-02-28T07:35:04.496Z,975.24
2019-02-28T07:36:10.626Z,975.04
2019-02-28T07:37:05.316Z,975.21
2019-02-28T07:38:05.483Z,975.21
2019-02-28T07:39:05.521Z,975.23
2019-02-28T07:40:05.278Z,975.26
2019-02-28T07:41:05.390Z,975.14
2019-02-28T07:42:04.482Z,975.28
2019-02-28T07:43:04.630Z,975.36
2019-02-28T07:44:04.898Z,975.25
2019-02-28T07:45:05.455Z,975.25
2019-02-28T07:46:08.863Z,975.25
2019-02-28T07:47:04.575Z,975.33
2019-02-28T07:48:04.858Z,975.31
2019-02-28T07:49:10.005Z,975.33
2019-02-28T07:50:10.869Z,975.35
2019-02-28T07:51:05.133Z,975.44
2019-02-28T07:52:05.409Z,975.52
2019-02-28T07:53:08.719Z,975.43
2019-02-28T07:54:04.738Z,975.60
2019-02-28T07:55:05.256Z,975.46
2019-02-28T07:56:08.073Z,975.49
2019-02-28T07:57:04.691Z,975.48
2019-02-28T07:58:05.295Z,975.40
2019-02-28T07:59:06.569Z,975.62
2019-02-28T08:00:05.428Z,975.42
2019-02-28T08:01:04.991Z,975.53
2019-02-28T08:02:05.117Z,975.45
2019-02-28T08:03:04.721Z,975.44
2019-02-28T08:04:05.134Z,975.41
2019-02-28T08:05:04.617Z,975.44
2019-02-28T08:06:05.929Z,975.52
2019-02-28T08:07:04.743Z,975.41
2019-02-28T08:08:05.374Z,975.38
2019-02-28T08:09:05.516Z,975.40
2019-02-28T08:10:04.587Z,975.37
2019-02-28T08:11:04.652Z,975.48
2019-02-28T08:12:05.130Z,975.51
2019-02-28T08:13:04.584Z,975.54
2019-02-28T08:14:05.331Z,975.65
2019-02-28T08:15:05.482Z,975.56
2019-02-28T08:16:05.105Z,975.53
2019-02-28T08:17:08.733Z,975.56
2019-02-28T08:18:06.226Z,975.53
2019-02-28T08:19:04.921Z,975.41
2019-02-28T08:20:04.589Z,975.44
2019-02-28T08:21:08.819Z,975.44
2019-02-28T08:22:05.064Z,975.49
2019-02-28T08:23:05.351Z,975.41
2019-02-28T08:24:06.640Z,975.35
2019-02-28T08:25:08.763Z,975.40
2019-02-28T08:26:04.548Z,975.30
2019-02-28T08:27:04.687Z,975.32
2019-02-28T08:28:04.785Z,975.37
2019-02-28T08:29:12.103Z,975.24
2019-02-28T08:30:04.553Z,975.32
2019-02-28T08:31:04.689Z,975.36
2019-02-28T08:32:08.401Z,975.23
2019-02-28T08:33:05.152Z,975.26
2019-02-28T08:34:05.220Z,975.23
2019-02-28T08:35:04.827Z,975.28
2019-02-28T08:36:12.707Z,975.33
2019-02-28T08:37:05.385Z,975.28
2019-02-28T08:38:07.312Z,975.28
2019-02-28T08:39:09.739Z,975.25
2019-02-28T08:40:05.150Z,975.25
2019-02-28T08:41:06.851Z,975.24
2019-02-28T08:42:05.278Z,975.16
2019-02-28T08:43:05.018Z,975.10
2019-02-28T08:44:04.614Z,975.24
2019-02-28T08:45:05.276Z,975.18
2019-02-28T08:46:12.996Z,975.12
2019-02-28T08:47:05.305Z,975.12
2019-02-28T08:48:05.006Z,975.03
2019-02-28T08:49:07.650Z,975.17
2019-02-28T08:50:05.345Z,975.23
2019-02-28T08:51:05.553Z,975.28
2019-02-28T08:52:06.821Z,975.17
2019-02-28T08:53:04.659Z,975.16
2019-02-28T08:54:06.498Z,975.19
2019-02-28T08:55:09.370Z,975.16
2019-02-28T08:56:05.129Z,975.19
2019-02-28T08:57:05.386Z,975.33
2019-02-28T08:58:06.740Z,975.24
2019-02-28T08:59:15.390Z,975.24
2019-02-28T09:00:05.129Z,975.15
2019-02-28T09:01:06.829Z,975.24
2019-02-28T09:02:04.683Z,975.29
2019-02-28T09:03:04.865Z,975.29
2019-02-28T09:04:06.151Z,975.20
2019-02-28T09:05:06.647Z,975.17
2019-02-28T09:06:07.728Z,975.26
2019-02-28T09:07:05.326Z,975.31
2019-02-28T09:08:04.785Z,975.17
2019-02-28T09:09:05.393Z,975.05
2019-02-28T09:10:12.646Z,975.19
2019-02-28T09:11:05.365Z,975.30
2019-02-28T09:12:05.544Z,975.04
2019-02-28T09:13:08.871Z,975.10
2019-02-28T09:14:04.637Z,975.10
2019-02-28T09:15:04.853Z,975.15
2019-02-28T09:16:05.916Z,975.04
2019-02-28T09:17:04.767Z,975.10
2019-02-28T09:18:06.679Z,975.01
2019-02-28T09:19:05.037Z,975.03
2019-02-28T09:20:10.637Z,975.18
2019-02-28T09:21:04.888Z,975.09
2019-02-28T09:22:04.910Z,975.12
2019-02-28T09:23:06.758Z,975.03
2019-02-28T09:24:05.472Z,975.03
2019-02-28T09:25:05.235Z,975.05
2019-02-28T09:26:05.438Z,975.02
2019-02-28T09:27:05.335Z,975.11
2019-02-28T09:28:05.072Z,975.05
2019-02-28T09:29:05.223Z,974.99
2019-02-28T09:30:04.558Z,975.01
2019-02-28T09:31:06.079Z,974.95
2019-02-28T09:32:04.978Z,974.91
2019-02-28T09:33:05.316Z,975.04
2019-02-28T09:34:05.567Z,975.09
2019-02-28T09:35:12.910Z,974.95
2019-02-28T09:36:04.805Z,975.03
2019-02-28T09:37:04.947Z,974.95
2019-02-28T09:38:13.313Z,975.02
2019-02-28T09:39:05.122Z,974.95
2019-02-28T09:40:05.256Z,974.99
2019-02-28T09:41:05.650Z,974.96
2019-02-28T09:42:04.522Z,974.85
2019-02-28T09:43:04.782Z,974.95
2019-02-28T09:44:04.832Z,975.12
2019-02-28T09:45:08.112Z,974.95
2019-02-28T09:46:04.731Z,975.15
2019-02-28T09:47:04.836Z,975.12
2019-02-28T09:48:05.438Z,975.03
2019-02-28T09:49:09.080Z,974.97
2019-02-28T09:50:04.759Z,974.89
2019-02-28T09:51:05.123Z,974.83
2019-02-28T09:52:07.542Z,974.86
2019-02-28T09:53:05.283Z,974.83
2019-02-28T09:54:05.416Z,974.80
2019-02-28T09:55:04.769Z,974.86
2019-02-28T09:56:10.145Z,974.83
2019-02-28T09:57:05.023Z,974.88
2019-02-28T09:58:05.203Z,974.79
2019-02-28T09:59:05.281Z,974.85
2019-02-28T10:00:04.965Z,974.93
2019-02-28T10:01:04.646Z,974.87
2019-02-28T10:02:09.603Z,974.76
2019-02-28T10:03:10.327Z,974.84
2019-02-28T10:04:04.589Z,974.90
2019-02-28T10:05:07.814Z,974.93
2019-02-28T10:06:05.367Z,974.93
2019-02-28T10:07:04.600Z,974.92
2019-02-28T10:08:04.764Z,974.84
2019-02-28T10:09:05.088Z,975.05
2019-02-28T10:10:04.501Z,974.86
2019-02-28T10:11:04.632Z,974.91
2019-02-28T10:12:08.855Z,974.83
2019-02-28T10:13:05.039Z,974.74
2019-02-28T10:14:05.201Z,974.80
2019-02-28T10:15:07.730Z,974.82
2019-02-28T10:16:05.399Z,974.91
2019-02-28T10:17:04.588Z,974.82
2019-02-28T10:18:05.646Z,974.76
2019-02-28T10:19:05.698Z,974.85
2019-02-28T10:20:05.460Z,974.84
2019-02-28T10:21:04.692Z,974.81
2019-02-28T10:22:05.029Z,974.70
2019-02-28T10:23:05.111Z,974.72
2019-02-28T10:24:05.175Z,974.58
2019-02-28T10:25:07.170Z,974.72
2019-02-28T10:26:04.878Z,974.72
2019-02-28T10:27:05.128Z,974.78
2019-02-28T10:28:05.256Z,974.80
2019-02-28T10:29:10.413Z,974.72
2019-02-28T10:30:04.800Z,974.77
2019-02-28T10:31:04.914Z,974.86
2019-02-28T10:32:09.708Z,974.88
2019-02-28T10:33:05.334Z,974.74
2019-02-28T10:34:04.968Z,974.77
2019-02-28T10:35:05.263Z,974.71
2019-02-28T10:36:05.568Z,974.71
2019-02-28T10:37:04.827Z,974.70
2019-02-28T10:38:05.287Z,974.85
2019-02-28T10:39:08.853Z,974.79
2019-02-28T10:40:05.503Z,974.79
2019-02-28T10:41:05.177Z,974.70
2019-02-28T10:42:06.414Z,974.78
2019-02-28T10:43:05.092Z,974.78
2019-02-28T10:44:04.827Z,974.64
2019-02-28T10:45:07.451Z,974.81
2019-02-28T10:46:05.030Z,974.66
2019-02-28T10:47:05.285Z,974.69
2019-02-28T10:48:04.620Z,974.66
2019-02-28T10:49:04.943Z,974.69
2019-02-28T10:50:05.018Z,974.66
2019-02-28T10:51:14.244Z,974.57
2019-02-28T10:52:05.079Z,974.63
2019-02-28T10:53:06.480Z,974.71
2019-02-28T10:54:05.127Z,974.74
2019-02-28T10:55:05.420Z,974.62
2019-02-28T10:56:05.459Z,974.50
2019-02-28T10:57:07.305Z,974.70
2019-02-28T10:58:04.899Z,974.70
2019-02-28T10:59:05.145Z,974.73
2019-02-28T11:00:05.148Z,974.67
2019-02-28T11:01:09.173Z,974.61
2019-02-28T11:02:05.026Z,974.67
2019-02-28T11:03:05.214Z,974.52
2019-02-28T11:04:08.199Z,974.66
2019-02-28T11:05:04.833Z,974.63
2019-02-28T11:06:05.137Z,974.52
2019-02-28T11:07:05.352Z,974.63
2019-02-28T11:08:05.189Z,974.55
2019-02-28T11:09:04.624Z,974.43
2019-02-28T11:10:04.708Z,974.52
2019-02-28T11:11:10.421Z,974.49
2019-02-28T11:12:04.828Z,974.63
2019-02-28T11:13:05.356Z,974.72
2019-02-28T11:14:05.378Z,974.54
2019-02-28T11:15:05.079Z,974.77
2019-02-28T11:16:05.327Z,974.63
2019-02-28T11:17:13.757Z,974.65
2019-02-28T11:18:09.904Z,974.59
2019-02-28T11:19:04.758Z,974.77
2019-02-28T11:20:04.734Z,974.65
2019-02-28T11:21:04.836Z,974.68
2019-02-28T11:22:06.284Z,974.73
2019-02-28T11:23:05.101Z,974.76
2019-02-28T11:24:04.722Z,974.73
2019-02-28T11:25:04.999Z,974.85
2019-02-28T11:26:10.359Z,974.73
2019-02-28T11:27:05.064Z,974.82
2019-02-28T11:28:05.300Z,974.76
2019-02-28T11:29:09.638Z,974.84
2019-02-28T11:30:10.064Z,974.81
2019-02-28T11:31:05.515Z,974.75
2019-02-28T11:32:04.842Z,974.84
2019-02-28T11:33:05.077Z,974.75
2019-02-28T11:34:04.475Z,974.78
2019-02-28T11:35:04.934Z,974.58
2019-02-28T11:36:05.111Z,974.69
2019-02-28T11:37:09.887Z,974.75
2019-02-28T11:38:05.457Z,974.75
2019-02-28T11:39:05.191Z,974.58
2019-02-28T11:40:08.457Z,974.69
2019-02-28T11:41:05.242Z,974.72
2019-02-28T11:42:04.716Z,974.60
2019-02-28T11:43:04.738Z,974.66
2019-02-28T11:44:05.085Z,974.63
2019-02-28T11:45:05.256Z,974.58
2019-02-28T11:46:05.489Z,974.63
2019-02-28T11:47:05.382Z,974.75
2019-02-28T11:48:04.559Z,974.69
2019-02-28T11:49:10.244Z,974.84
2019-02-28T11:50:07.901Z,974.72
2019-02-28T11:51:04.515Z,974.69
2019-02-28T11:52:04.672Z,974.66
2019-02-28T11:53:06.349Z,974.66
2019-02-28T11:54:05.166Z,974.63
2019-02-28T11:55:05.182Z,974.72
2019-02-28T11:56:05.459Z,974.74
2019-02-28T11:57:07.221Z,974.71
2019-02-28T11:58:04.809Z,974.63
2019-02-28T11:59:04.948Z,974.66
2019-02-28T12:00:05.223Z,974.60
2019-02-28T12:01:11.371Z,974.65
2019-02-28T12:02:05.061Z,974.68
2019-02-28T12:03:06.192Z,974.65
2019-02-28T12:04:04.898Z,974.65
2019-02-28T12:05:05.055Z,974.62
2019-02-28T12:06:07.286Z,974.54
2019-02-28T12:07:05.002Z,974.48
2019-02-28T12:08:10.615Z,974.62
2019-02-28T12:09:05.460Z,974.42
2019-02-28T12:10:04.775Z,974.71
2019-02-28T12:11:04.866Z,974.48
2019-02-28T12:12:11.190Z,974.56
2019-02-28T12:13:04.944Z,974.59
2019-02-28T12:14:06.776Z,974.62
2019-02-28T12:15:07.066Z,974.42
2019-02-28T12:16:04.775Z,974.47
2019-02-28T12:17:05.435Z,974.36
2019-02-28T12:18:05.566Z,974.53
2019-02-28T12:19:04.784Z,974.42
2019-02-28T12:20:05.232Z,974.42
2019-02-28T12:21:05.372Z,974.36
2019-02-28T12:22:04.738Z,974.44
2019-02-28T12:23:04.845Z,974.45
2019-02-28T12:24:05.052Z,974.45
2019-02-28T12:25:08.469Z,974.45
2019-02-28T12:26:04.941Z,974.53
2019-02-28T12:27:04.544Z,974.39
2019-02-28T12:28:07.029Z,974.50